sensor_id;sensor_type;location;lat;lon;timestamp;temperature;humidity
47861;HTU21D;33620;52.340;5.984;2022-11-20T00:01:33;-1.35;78.62
47861;HTU21D;33620;52.340;5.984;2022-11-20T00:03:58;-1.38;79.00
47861;HTU21D;33620;52.340;5.984;2022-11-20T00:06:25;-1.34;78.95
47861;HTU21D;33620;52.340;5.984;2022-11-20T00:08:51;-1.33;78.88
47861;HTU21D;33620;52.340;5.984;2022-11-20T00:11:20;-1.31;78.63
47861;HTU21D;33620;52.340;5.984;2022-11-20T00:13:47;-1.30;78.57
47861;HTU21D;33620;52.340;5.984;2022-11-20T00:16:15;-1.27;78.87
47861;HTU21D;33620;52.340;5.984;2022-11-20T00:18:41;-1.24;78.88
47861;HTU21D;33620;52.340;5.984;2022-11-20T00:21:11;-1.25;78.54
47861;HTU21D;33620;52.340;5.984;2022-11-20T00:23:36;-1.24;78.44
47861;HTU21D;33620;52.340;5.984;2022-11-20T00:26:07;-1.24;78.33
47861;HTU21D;33620;52.340;5.984;2022-11-20T00:28:32;-1.25;78.29
47861;HTU21D;33620;52.340;5.984;2022-11-20T00:31:06;-1.26;78.05
47861;HTU21D;33620;52.340;5.984;2022-11-20T00:33:32;-1.29;78.53
47861;HTU21D;33620;52.340;5.984;2022-11-20T00:36:04;-1.31;78.43
47861;HTU21D;33620;52.340;5.984;2022-11-20T00:38:31;-1.43;78.23
47861;HTU21D;33620;52.340;5.984;2022-11-20T00:40:58;-1.49;78.75
47861;HTU21D;33620;52.340;5.984;2022-11-20T00:43:24;-1.49;79.15
47861;HTU21D;33620;52.340;5.984;2022-11-20T00:45:49;-1.44;79.24
47861;HTU21D;33620;52.340;5.984;2022-11-20T00:48:15;-1.40;78.91
47861;HTU21D;33620;52.340;5.984;2022-11-20T00:50:41;-1.40;78.76
47861;HTU21D;33620;52.340;5.984;2022-11-20T00:53:06;-1.40;78.48
47861;HTU21D;33620;52.340;5.984;2022-11-20T00:55:32;-1.48;78.22
47861;HTU21D;33620;52.340;5.984;2022-11-20T00:57:57;-1.55;78.40
47861;HTU21D;33620;52.340;5.984;2022-11-20T01:00:22;-1.57;78.69
47861;HTU21D;33620;52.340;5.984;2022-11-20T01:02:48;-1.59;78.64
47861;HTU21D;33620;52.340;5.984;2022-11-20T01:05:13;-1.63;78.66
47861;HTU21D;33620;52.340;5.984;2022-11-20T01:07:38;-1.73;78.40
47861;HTU21D;33620;52.340;5.984;2022-11-20T01:10:04;-1.85;78.41
47861;HTU21D;33620;52.340;5.984;2022-11-20T01:12:30;-1.95;78.65
47861;HTU21D;33620;52.340;5.984;2022-11-20T01:14:55;-2.06;79.02
47861;HTU21D;33620;52.340;5.984;2022-11-20T01:17:20;-2.17;79.30
47861;HTU21D;33620;52.340;5.984;2022-11-20T01:19:49;-2.16;79.68
47861;HTU21D;33620;52.340;5.984;2022-11-20T01:22:15;-2.19;78.95
47861;HTU21D;33620;52.340;5.984;2022-11-20T01:24:40;-2.23;79.04
47861;HTU21D;33620;52.340;5.984;2022-11-20T01:27:06;-2.28;79.24
47861;HTU21D;33620;52.340;5.984;2022-11-20T01:29:31;-2.29;79.31
47861;HTU21D;33620;52.340;5.984;2022-11-20T01:31:56;-2.21;79.52
47861;HTU21D;33620;52.340;5.984;2022-11-20T01:34:22;-2.13;79.59
47861;HTU21D;33620;52.340;5.984;2022-11-20T01:36:48;-2.10;79.04
47861;HTU21D;33620;52.340;5.984;2022-11-20T01:39:19;-2.10;79.11
47861;HTU21D;33620;52.340;5.984;2022-11-20T01:41:46;-2.04;79.34
47861;HTU21D;33620;52.340;5.984;2022-11-20T01:44:51;-1.93;79.11
47861;HTU21D;33620;52.340;5.984;2022-11-20T01:47:36;-1.91;78.61
47861;HTU21D;33620;52.340;5.984;2022-11-20T01:52:37;-1.89;78.41
47861;HTU21D;33620;52.340;5.984;2022-11-20T01:55:11;-1.90;78.27
47861;HTU21D;33620;52.340;5.984;2022-11-20T01:57:38;-1.91;78.14
47861;HTU21D;33620;52.340;5.984;2022-11-20T02:00:08;-1.89;78.21
47861;HTU21D;33620;52.340;5.984;2022-11-20T02:02:35;-1.90;77.95
47861;HTU21D;33620;52.340;5.984;2022-11-20T02:05:08;-1.93;78.09
47861;HTU21D;33620;52.340;5.984;2022-11-20T02:07:35;-1.89;78.50
47861;HTU21D;33620;52.340;5.984;2022-11-20T02:10:01;-1.87;78.42
47861;HTU21D;33620;52.340;5.984;2022-11-20T02:12:27;-1.91;78.01
47861;HTU21D;33620;52.340;5.984;2022-11-20T02:15:10;-1.92;78.14
47861;HTU21D;33620;52.340;5.984;2022-11-20T02:17:36;-1.93;78.12
47861;HTU21D;33620;52.340;5.984;2022-11-20T02:20:02;-1.94;78.29
47861;HTU21D;33620;52.340;5.984;2022-11-20T02:22:32;-2.02;78.03
47861;HTU21D;33620;52.340;5.984;2022-11-20T02:25:00;-2.10;78.19
47861;HTU21D;33620;52.340;5.984;2022-11-20T02:27:27;-2.18;78.73
47861;HTU21D;33620;52.340;5.984;2022-11-20T02:29:57;-2.21;78.82
47861;HTU21D;33620;52.340;5.984;2022-11-20T02:32:28;-2.24;78.78
47861;HTU21D;33620;52.340;5.984;2022-11-20T02:34:54;-2.29;78.80
47861;HTU21D;33620;52.340;5.984;2022-11-20T02:37:21;-2.35;78.94
47861;HTU21D;33620;52.340;5.984;2022-11-20T02:39:49;-2.41;78.90
47861;HTU21D;33620;52.340;5.984;2022-11-20T02:42:15;-2.50;78.50
47861;HTU21D;33620;52.340;5.984;2022-11-20T02:44:40;-2.56;78.95
47861;HTU21D;33620;52.340;5.984;2022-11-20T02:47:06;-2.53;79.05
47861;HTU21D;33620;52.340;5.984;2022-11-20T02:49:32;-2.52;78.98
47861;HTU21D;33620;52.340;5.984;2022-11-20T02:51:58;-2.48;78.95
47861;HTU21D;33620;52.340;5.984;2022-11-20T02:54:24;-2.44;78.61
47861;HTU21D;33620;52.340;5.984;2022-11-20T02:56:49;-2.52;78.20
47861;HTU21D;33620;52.340;5.984;2022-11-20T02:59:15;-2.61;78.30
47861;HTU21D;33620;52.340;5.984;2022-11-20T03:01:40;-2.64;78.60
47861;HTU21D;33620;52.340;5.984;2022-11-20T03:04:05;-2.63;78.71
47861;HTU21D;33620;52.340;5.984;2022-11-20T03:06:31;-2.64;78.68
47861;HTU21D;33620;52.340;5.984;2022-11-20T03:08:57;-2.67;78.69
47861;HTU21D;33620;52.340;5.984;2022-11-20T03:11:22;-2.71;78.81
47861;HTU21D;33620;52.340;5.984;2022-11-20T03:13:47;-2.69;78.89
47861;HTU21D;33620;52.340;5.984;2022-11-20T03:16:16;-2.74;78.63
47861;HTU21D;33620;52.340;5.984;2022-11-20T03:18:42;-2.75;78.79
47861;HTU21D;33620;52.340;5.984;2022-11-20T03:21:09;-2.73;78.96
47861;HTU21D;33620;52.340;5.984;2022-11-20T03:23:35;-2.69;78.92
47861;HTU21D;33620;52.340;5.984;2022-11-20T03:28:37;-2.71;78.40
47861;HTU21D;33620;52.340;5.984;2022-11-20T03:31:08;-2.76;78.43
47861;HTU21D;33620;52.340;5.984;2022-11-20T03:33:34;-2.77;78.64
47861;HTU21D;33620;52.340;5.984;2022-11-20T03:36:04;-2.77;78.56
47861;HTU21D;33620;52.340;5.984;2022-11-20T03:38:31;-2.73;78.71
47861;HTU21D;33620;52.340;5.984;2022-11-20T03:41:05;-2.68;78.82
47861;HTU21D;33620;52.340;5.984;2022-11-20T03:43:31;-2.62;78.72
47861;HTU21D;33620;52.340;5.984;2022-11-20T03:45:56;-2.58;78.39
47861;HTU21D;33620;52.340;5.984;2022-11-20T03:48:22;-2.60;78.26
47861;HTU21D;33620;52.340;5.984;2022-11-20T03:50:47;-2.59;78.29
47861;HTU21D;33620;52.340;5.984;2022-11-20T03:53:14;-2.63;78.07
47861;HTU21D;33620;52.340;5.984;2022-11-20T03:55:39;-2.68;78.27
47861;HTU21D;33620;52.340;5.984;2022-11-20T03:58:04;-2.68;78.47
47861;HTU21D;33620;52.340;5.984;2022-11-20T04:00:30;-2.67;78.62
47861;HTU21D;33620;52.340;5.984;2022-11-20T04:02:59;-2.68;78.43
47861;HTU21D;33620;52.340;5.984;2022-11-20T04:05:25;-2.75;78.22
47861;HTU21D;33620;52.340;5.984;2022-11-20T04:07:50;-2.82;78.66
47861;HTU21D;33620;52.340;5.984;2022-11-20T04:10:16;-2.88;78.69
47861;HTU21D;33620;52.340;5.984;2022-11-20T04:12:41;-2.94;78.80
47861;HTU21D;33620;52.340;5.984;2022-11-20T04:15:07;-2.94;79.03
47861;HTU21D;33620;52.340;5.984;2022-11-20T04:17:32;-2.87;79.09
47861;HTU21D;33620;52.340;5.984;2022-11-20T04:19:57;-2.81;78.89
47861;HTU21D;33620;52.340;5.984;2022-11-20T04:22:23;-2.76;78.63
47861;HTU21D;33620;52.340;5.984;2022-11-20T04:24:48;-2.76;78.22
47861;HTU21D;33620;52.340;5.984;2022-11-20T04:27:14;-2.75;78.34
47861;HTU21D;33620;52.340;5.984;2022-11-20T04:29:39;-2.75;78.34
47861;HTU21D;33620;52.340;5.984;2022-11-20T04:32:04;-2.72;78.59
47861;HTU21D;33620;52.340;5.984;2022-11-20T04:34:30;-2.68;78.31
47861;HTU21D;33620;52.340;5.984;2022-11-20T04:36:55;-2.71;78.18
47861;HTU21D;33620;52.340;5.984;2022-11-20T04:39:20;-2.77;78.23
47861;HTU21D;33620;52.340;5.984;2022-11-20T04:41:45;-2.77;78.37
47861;HTU21D;33620;52.340;5.984;2022-11-20T04:44:11;-2.77;78.58
47861;HTU21D;33620;52.340;5.984;2022-11-20T04:46:39;-2.80;78.38
47861;HTU21D;33620;52.340;5.984;2022-11-20T04:49:17;-2.90;78.05
47861;HTU21D;33620;52.340;5.984;2022-11-20T04:51:45;-2.96;78.56
47861;HTU21D;33620;52.340;5.984;2022-11-20T04:54:13;-2.95;78.59
47861;HTU21D;33620;52.340;5.984;2022-11-20T04:56:50;-3.01;78.50
47861;HTU21D;33620;52.340;5.984;2022-11-20T04:59:18;-3.03;78.46
47861;HTU21D;33620;52.340;5.984;2022-11-20T05:01:57;-3.03;78.50
47861;HTU21D;33620;52.340;5.984;2022-11-20T05:04:26;-3.07;78.28
47861;HTU21D;33620;52.340;5.984;2022-11-20T05:06:57;-3.17;78.11
47861;HTU21D;33620;52.340;5.984;2022-11-20T05:09:26;-3.31;78.00
47861;HTU21D;33620;52.340;5.984;2022-11-20T05:11:52;-3.40;78.30
47861;HTU21D;33620;52.340;5.984;2022-11-20T05:14:38;-3.55;78.57
47861;HTU21D;33620;52.340;5.984;2022-11-20T05:17:04;-3.61;78.88
47861;HTU21D;33620;52.340;5.984;2022-11-20T05:19:30;-3.66;79.33
47861;HTU21D;33620;52.340;5.984;2022-11-20T05:22:00;-3.66;79.40
47861;HTU21D;33620;52.340;5.984;2022-11-20T05:24:29;-3.64;79.44
47861;HTU21D;33620;52.340;5.984;2022-11-20T05:26:59;-3.63;79.39
47861;HTU21D;33620;52.340;5.984;2022-11-20T05:29:34;-3.65;78.92
47861;HTU21D;33620;52.340;5.984;2022-11-20T05:32:01;-3.69;79.14
47861;HTU21D;33620;52.340;5.984;2022-11-20T05:34:31;-3.63;79.40
47861;HTU21D;33620;52.340;5.984;2022-11-20T05:37:01;-3.61;79.44
47861;HTU21D;33620;52.340;5.984;2022-11-20T05:39:35;-3.51;79.33
47861;HTU21D;33620;52.340;5.984;2022-11-20T05:42:06;-3.41;79.27
47861;HTU21D;33620;52.340;5.984;2022-11-20T05:45:00;-3.36;79.07
47861;HTU21D;33620;52.340;5.984;2022-11-20T05:47:28;-3.28;78.91
47861;HTU21D;33620;52.340;5.984;2022-11-20T05:49:56;-3.26;78.42
47861;HTU21D;33620;52.340;5.984;2022-11-20T05:52:27;-3.31;78.50
47861;HTU21D;33620;52.340;5.984;2022-11-20T05:54:53;-3.26;78.82
47861;HTU21D;33620;52.340;5.984;2022-11-20T05:57:19;-3.20;78.64
47861;HTU21D;33620;52.340;5.984;2022-11-20T05:59:45;-3.19;78.34
47861;HTU21D;33620;52.340;5.984;2022-11-20T06:02:16;-3.26;78.35
47861;HTU21D;33620;52.340;5.984;2022-11-20T06:04:45;-3.27;78.67
47861;HTU21D;33620;52.340;5.984;2022-11-20T06:07:16;-3.24;78.53
47861;HTU21D;33620;52.340;5.984;2022-11-20T06:09:45;-3.20;78.71
47861;HTU21D;33620;52.340;5.984;2022-11-20T06:12:22;-3.22;78.30
47861;HTU21D;33620;52.340;5.984;2022-11-20T06:14:48;-3.33;78.07
47861;HTU21D;33620;52.340;5.984;2022-11-20T06:17:14;-3.35;78.69
47861;HTU21D;33620;52.340;5.984;2022-11-20T06:19:40;-3.30;79.14
47861;HTU21D;33620;52.340;5.984;2022-11-20T06:22:08;-3.22;79.00
47861;HTU21D;33620;52.340;5.984;2022-11-20T06:24:36;-3.19;78.93
47861;HTU21D;33620;52.340;5.984;2022-11-20T06:27:08;-3.21;78.56
47861;HTU21D;33620;52.340;5.984;2022-11-20T06:29:39;-3.25;78.47
47861;HTU21D;33620;52.340;5.984;2022-11-20T06:32:05;-3.27;78.56
47861;HTU21D;33620;52.340;5.984;2022-11-20T06:34:36;-3.34;78.37
47861;HTU21D;33620;52.340;5.984;2022-11-20T06:37:02;-3.47;78.31
47861;HTU21D;33620;52.340;5.984;2022-11-20T06:39:41;-3.61;78.69
47861;HTU21D;33620;52.340;5.984;2022-11-20T06:42:10;-3.72;79.04
47861;HTU21D;33620;52.340;5.984;2022-11-20T06:44:39;-3.82;79.11
47861;HTU21D;33620;52.340;5.984;2022-11-20T06:47:17;-4.00;79.01
47861;HTU21D;33620;52.340;5.984;2022-11-20T06:49:44;-4.11;79.59
47861;HTU21D;33620;52.340;5.984;2022-11-20T06:52:20;-4.12;80.16
47861;HTU21D;33620;52.340;5.984;2022-11-20T06:55:01;-4.04;80.21
47861;HTU21D;33620;52.340;5.984;2022-11-20T06:57:27;-3.93;80.17
47861;HTU21D;33620;52.340;5.984;2022-11-20T06:59:59;-3.85;79.92
47861;HTU21D;33620;52.340;5.984;2022-11-20T07:02:28;-3.78;79.50
47861;HTU21D;33620;52.340;5.984;2022-11-20T07:04:57;-3.84;78.92
47861;HTU21D;33620;52.340;5.984;2022-11-20T07:07:25;-3.89;79.66
47861;HTU21D;33620;52.340;5.984;2022-11-20T07:09:59;-3.81;79.85
47861;HTU21D;33620;52.340;5.984;2022-11-20T07:12:28;-3.72;79.86
47861;HTU21D;33620;52.340;5.984;2022-11-20T07:14:56;-3.70;79.62
47861;HTU21D;33620;52.340;5.984;2022-11-20T07:17:22;-3.74;79.17
47861;HTU21D;33620;52.340;5.984;2022-11-20T07:19:54;-3.82;79.17
47861;HTU21D;33620;52.340;5.984;2022-11-20T07:22:38;-3.90;79.90
47861;HTU21D;33620;52.340;5.984;2022-11-20T07:25:07;-3.86;80.24
47861;HTU21D;33620;52.340;5.984;2022-11-20T07:27:34;-3.81;80.30
47861;HTU21D;33620;52.340;5.984;2022-11-20T07:30:05;-3.76;80.05
47861;HTU21D;33620;52.340;5.984;2022-11-20T07:32:31;-3.71;79.86
47861;HTU21D;33620;52.340;5.984;2022-11-20T07:35:02;-3.71;79.72
47861;HTU21D;33620;52.340;5.984;2022-11-20T07:37:34;-3.72;79.96
47861;HTU21D;33620;52.340;5.984;2022-11-20T07:40:07;-3.68;79.91
47861;HTU21D;33620;52.340;5.984;2022-11-20T07:42:33;-3.60;80.04
47861;HTU21D;33620;52.340;5.984;2022-11-20T07:45:02;-3.55;79.91
47861;HTU21D;33620;52.340;5.984;2022-11-20T07:47:37;-3.55;79.86
47861;HTU21D;33620;52.340;5.984;2022-11-20T07:50:11;-3.54;80.16
47861;HTU21D;33620;52.340;5.984;2022-11-20T07:52:43;-3.51;80.39
47861;HTU21D;33620;52.340;5.984;2022-11-20T07:55:12;-3.46;80.36
47861;HTU21D;33620;52.340;5.984;2022-11-20T07:57:41;-3.33;80.58
47861;HTU21D;33620;52.340;5.984;2022-11-20T08:00:11;-3.23;80.69
47861;HTU21D;33620;52.340;5.984;2022-11-20T08:02:40;-3.18;80.45
47861;HTU21D;33620;52.340;5.984;2022-11-20T08:05:13;-3.19;80.65
47861;HTU21D;33620;52.340;5.984;2022-11-20T08:07:43;-3.13;81.10
47861;HTU21D;33620;52.340;5.984;2022-11-20T08:10:15;-3.02;81.42
47861;HTU21D;33620;52.340;5.984;2022-11-20T08:13:05;-2.92;81.44
47861;HTU21D;33620;52.340;5.984;2022-11-20T08:15:50;-2.88;81.33
47861;HTU21D;33620;52.340;5.984;2022-11-20T08:18:17;-2.86;81.68
47861;HTU21D;33620;52.340;5.984;2022-11-20T08:20:50;-2.80;81.93
47861;HTU21D;33620;52.340;5.984;2022-11-20T08:23:16;-2.74;82.08
47861;HTU21D;33620;52.340;5.984;2022-11-20T08:25:49;-2.68;82.20
47861;HTU21D;33620;52.340;5.984;2022-11-20T08:28:15;-2.63;82.33
47861;HTU21D;33620;52.340;5.984;2022-11-20T08:30:50;-2.61;82.36
47861;HTU21D;33620;52.340;5.984;2022-11-20T08:33:20;-2.58;82.78
47861;HTU21D;33620;52.340;5.984;2022-11-20T08:36:02;-2.48;83.00
47861;HTU21D;33620;52.340;5.984;2022-11-20T08:38:47;-2.41;83.00
47861;HTU21D;33620;52.340;5.984;2022-11-20T08:41:19;-2.38;83.16
47861;HTU21D;33620;52.340;5.984;2022-11-20T08:43:59;-2.33;83.44
47861;HTU21D;33620;52.340;5.984;2022-11-20T08:46:53;-2.24;83.62
47861;HTU21D;33620;52.340;5.984;2022-11-20T08:49:31;-2.15;83.74
47861;HTU21D;33620;52.340;5.984;2022-11-20T08:52:06;-2.07;83.87
47861;HTU21D;33620;52.340;5.984;2022-11-20T08:54:45;-2.00;83.87
47861;HTU21D;33620;52.340;5.984;2022-11-20T08:57:13;-1.97;84.03
47861;HTU21D;33620;52.340;5.984;2022-11-20T08:59:44;-1.94;84.23
47861;HTU21D;33620;52.340;5.984;2022-11-20T09:02:12;-1.91;84.42
47861;HTU21D;33620;52.340;5.984;2022-11-20T09:04:39;-1.87;84.55
47861;HTU21D;33620;52.340;5.984;2022-11-20T09:07:04;-1.83;84.57
47861;HTU21D;33620;52.340;5.984;2022-11-20T09:09:34;-1.79;84.71
47861;HTU21D;33620;52.340;5.984;2022-11-20T09:12:02;-1.78;84.84
47861;HTU21D;33620;52.340;5.984;2022-11-20T09:14:33;-1.75;84.94
47861;HTU21D;33620;52.340;5.984;2022-11-20T09:16:59;-1.71;84.83
47861;HTU21D;33620;52.340;5.984;2022-11-20T09:19:25;-1.67;84.89
47861;HTU21D;33620;52.340;5.984;2022-11-20T09:21:54;-1.59;84.97
47861;HTU21D;33620;52.340;5.984;2022-11-20T09:24:28;-1.53;84.92
47861;HTU21D;33620;52.340;5.984;2022-11-20T09:26:56;-1.47;84.97
47861;HTU21D;33620;52.340;5.984;2022-11-20T09:29:22;-1.43;84.83
47861;HTU21D;33620;52.340;5.984;2022-11-20T09:31:51;-1.35;84.93
47861;HTU21D;33620;52.340;5.984;2022-11-20T09:34:17;-1.29;84.90
47861;HTU21D;33620;52.340;5.984;2022-11-20T09:36:43;-1.26;84.98
47861;HTU21D;33620;52.340;5.984;2022-11-20T09:39:12;-1.23;85.19
47861;HTU21D;33620;52.340;5.984;2022-11-20T09:42:00;-1.17;85.35
47861;HTU21D;33620;52.340;5.984;2022-11-20T09:44:46;-1.11;85.55
47861;HTU21D;33620;52.340;5.984;2022-11-20T09:47:32;-1.04;85.44
47861;HTU21D;33620;52.340;5.984;2022-11-20T09:53:00;-0.91;85.44
47861;HTU21D;33620;52.340;5.984;2022-11-20T09:55:30;-0.83;85.63
47861;HTU21D;33620;52.340;5.984;2022-11-20T09:58:06;-0.77;85.69
47861;HTU21D;33620;52.340;5.984;2022-11-20T10:00:36;-0.71;85.61
47861;HTU21D;33620;52.340;5.984;2022-11-20T10:03:15;-0.66;85.58
47861;HTU21D;33620;52.340;5.984;2022-11-20T10:05:45;-0.58;85.61
47861;HTU21D;33620;52.340;5.984;2022-11-20T10:08:50;-0.54;85.57
47861;HTU21D;33620;52.340;5.984;2022-11-20T10:11:28;-0.47;85.71
47861;HTU21D;33620;52.340;5.984;2022-11-20T10:29:35;-0.10;86.41
47861;HTU21D;33620;52.340;5.984;2022-11-20T10:32:20;-0.03;86.38
47861;HTU21D;33620;52.340;5.984;2022-11-20T10:35:27;0.02;86.26
47861;HTU21D;33620;52.340;5.984;2022-11-20T10:38:03;0.08;86.42
47861;HTU21D;33620;52.340;5.984;2022-11-20T10:40:54;0.12;86.47
47861;HTU21D;33620;52.340;5.984;2022-11-20T10:43:41;0.17;86.41
47861;HTU21D;33620;52.340;5.984;2022-11-20T10:46:12;0.20;86.34
47861;HTU21D;33620;52.340;5.984;2022-11-20T10:48:43;0.24;86.04
47861;HTU21D;33620;52.340;5.984;2022-11-20T10:56:40;0.39;86.16
47861;HTU21D;33620;52.340;5.984;2022-11-20T11:01:44;0.52;86.35
47861;HTU21D;33620;52.340;5.984;2022-11-20T11:04:37;0.59;86.51
47861;HTU21D;33620;52.340;5.984;2022-11-20T11:07:15;0.63;86.52
47861;HTU21D;33620;52.340;5.984;2022-11-20T11:09:48;0.67;86.61
47861;HTU21D;33620;52.340;5.984;2022-11-20T11:12:13;0.74;86.61
47861;HTU21D;33620;52.340;5.984;2022-11-20T11:14:57;0.79;86.65
47861;HTU21D;33620;52.340;5.984;2022-11-20T11:17:30;0.87;86.73
47861;HTU21D;33620;52.340;5.984;2022-11-20T11:22:33;0.97;86.42
47861;HTU21D;33620;52.340;5.984;2022-11-20T11:24:59;1.02;86.56
47861;HTU21D;33620;52.340;5.984;2022-11-20T11:27:25;1.06;86.56
47861;HTU21D;33620;52.340;5.984;2022-11-20T11:30:01;1.10;86.73
47861;HTU21D;33620;52.340;5.984;2022-11-20T11:32:27;1.16;86.82
47861;HTU21D;33620;52.340;5.984;2022-11-20T11:35:04;1.20;86.90
47861;HTU21D;33620;52.340;5.984;2022-11-20T11:37:34;1.23;86.77
47861;HTU21D;33620;52.340;5.984;2022-11-20T11:40:01;1.27;86.86
47861;HTU21D;33620;52.340;5.984;2022-11-20T11:42:28;1.33;87.10
47861;HTU21D;33620;52.340;5.984;2022-11-20T11:44:56;1.36;87.08
47861;HTU21D;33620;52.340;5.984;2022-11-20T11:47:33;1.41;87.18
47861;HTU21D;33620;52.340;5.984;2022-11-20T11:52:59;1.49;87.34
47861;HTU21D;33620;52.340;5.984;2022-11-20T11:55:40;1.52;87.31
47861;HTU21D;33620;52.340;5.984;2022-11-20T11:58:41;1.57;87.41
47861;HTU21D;33620;52.340;5.984;2022-11-20T12:03:53;1.64;87.56
47861;HTU21D;33620;52.340;5.984;2022-11-20T12:06:20;1.67;87.62
47861;HTU21D;33620;52.340;5.984;2022-11-20T12:08:57;1.72;87.69
47861;HTU21D;33620;52.340;5.984;2022-11-20T12:16:57;1.83;88.03
47861;HTU21D;33620;52.340;5.984;2022-11-20T12:19:23;1.85;88.17
47861;HTU21D;33620;52.340;5.984;2022-11-20T12:24:32;1.88;88.39
47861;HTU21D;33620;52.340;5.984;2022-11-20T12:27:26;1.88;88.48
47861;HTU21D;33620;52.340;5.984;2022-11-20T12:40:59;1.98;88.89
47861;HTU21D;33620;52.340;5.984;2022-11-20T12:43:29;1.99;88.93
47861;HTU21D;33620;52.340;5.984;2022-11-20T12:51:55;2.02;88.88
47861;HTU21D;33620;52.340;5.984;2022-11-20T12:57:21;2.08;88.96
47861;HTU21D;33620;52.340;5.984;2022-11-20T13:03:27;2.09;88.84
47861;HTU21D;33620;52.340;5.984;2022-11-20T13:08:38;2.12;88.93
47861;HTU21D;33620;52.340;5.984;2022-11-20T13:16:22;2.16;88.68
47861;HTU21D;33620;52.340;5.984;2022-11-20T13:18:48;2.17;88.59
47861;HTU21D;33620;52.340;5.984;2022-11-20T13:21:16;2.19;88.47
47861;HTU21D;33620;52.340;5.984;2022-11-20T13:23:43;2.20;88.29
47861;HTU21D;33620;52.340;5.984;2022-11-20T13:26:17;2.21;88.21
47861;HTU21D;33620;52.340;5.984;2022-11-20T13:28:46;2.22;88.28
47861;HTU21D;33620;52.340;5.984;2022-11-20T13:31:45;2.22;88.09
47861;HTU21D;33620;52.340;5.984;2022-11-20T13:34:14;2.21;87.96
47861;HTU21D;33620;52.340;5.984;2022-11-20T13:36:50;2.21;87.89
47861;HTU21D;33620;52.340;5.984;2022-11-20T13:39:25;2.21;87.99
47861;HTU21D;33620;52.340;5.984;2022-11-20T13:41:58;2.22;87.96
47861;HTU21D;33620;52.340;5.984;2022-11-20T13:46:55;2.25;87.88
47861;HTU21D;33620;52.340;5.984;2022-11-20T13:49:37;2.26;87.87
47861;HTU21D;33620;52.340;5.984;2022-11-20T14:03:23;2.29;87.75
47861;HTU21D;33620;52.340;5.984;2022-11-20T14:05:54;2.29;87.64
47861;HTU21D;33620;52.340;5.984;2022-11-20T14:08:27;2.28;87.57
47861;HTU21D;33620;52.340;5.984;2022-11-20T14:11:03;2.29;87.72
47861;HTU21D;33620;52.340;5.984;2022-11-20T14:13:28;2.31;87.63
47861;HTU21D;33620;52.340;5.984;2022-11-20T14:15:57;2.31;87.72
47861;HTU21D;33620;52.340;5.984;2022-11-20T14:18:22;2.31;87.69
47861;HTU21D;33620;52.340;5.984;2022-11-20T14:20:48;2.31;87.59
47861;HTU21D;33620;52.340;5.984;2022-11-20T14:23:24;2.31;87.56
47861;HTU21D;33620;52.340;5.984;2022-11-20T14:25:50;2.32;87.51
47861;HTU21D;33620;52.340;5.984;2022-11-20T14:28:24;2.32;87.43
47861;HTU21D;33620;52.340;5.984;2022-11-20T14:30:50;2.34;87.38
47861;HTU21D;33620;52.340;5.984;2022-11-20T14:33:16;2.34;87.34
47861;HTU21D;33620;52.340;5.984;2022-11-20T14:35:50;2.35;87.33
47861;HTU21D;33620;52.340;5.984;2022-11-20T14:38:22;2.37;87.44
47861;HTU21D;33620;52.340;5.984;2022-11-20T14:40:49;2.39;87.52
47861;HTU21D;33620;52.340;5.984;2022-11-20T14:43:26;2.41;87.64
47861;HTU21D;33620;52.340;5.984;2022-11-20T14:46:04;2.42;87.79
47861;HTU21D;33620;52.340;5.984;2022-11-20T14:48:48;2.41;87.90
47861;HTU21D;33620;52.340;5.984;2022-11-20T14:51:30;2.43;88.06
47861;HTU21D;33620;52.340;5.984;2022-11-20T14:53:56;2.43;88.13
47861;HTU21D;33620;52.340;5.984;2022-11-20T14:56:23;2.43;88.26
47861;HTU21D;33620;52.340;5.984;2022-11-20T14:58:58;2.44;88.49
47861;HTU21D;33620;52.340;5.984;2022-11-20T15:01:27;2.44;88.68
47861;HTU21D;33620;52.340;5.984;2022-11-20T15:04:08;2.44;88.89
47861;HTU21D;33620;52.340;5.984;2022-11-20T15:06:34;2.45;89.11
47861;HTU21D;33620;52.340;5.984;2022-11-20T15:09:02;2.44;89.35
47861;HTU21D;33620;52.340;5.984;2022-11-20T15:11:33;2.44;89.64
47861;HTU21D;33620;52.340;5.984;2022-11-20T15:14:04;2.44;89.79
47861;HTU21D;33620;52.340;5.984;2022-11-20T15:16:30;2.44;90.05
47861;HTU21D;33620;52.340;5.984;2022-11-20T15:18:56;2.44;90.32
47861;HTU21D;33620;52.340;5.984;2022-11-20T15:21:22;2.45;90.69
47861;HTU21D;33620;52.340;5.984;2022-11-20T15:23:48;2.43;90.82
47861;HTU21D;33620;52.340;5.984;2022-11-20T15:26:20;2.41;91.08
47861;HTU21D;33620;52.340;5.984;2022-11-20T15:28:47;2.41;91.37
47861;HTU21D;33620;52.340;5.984;2022-11-20T15:31:17;2.41;91.65
47861;HTU21D;33620;52.340;5.984;2022-11-20T15:33:43;2.41;91.85
47861;HTU21D;33620;52.340;5.984;2022-11-20T15:36:09;2.41;92.00
47861;HTU21D;33620;52.340;5.984;2022-11-20T15:38:35;2.39;92.08
47861;HTU21D;33620;52.340;5.984;2022-11-20T15:41:00;2.39;92.24
47861;HTU21D;33620;52.340;5.984;2022-11-20T15:43:26;2.39;92.36
47861;HTU21D;33620;52.340;5.984;2022-11-20T15:45:55;2.39;92.49
47861;HTU21D;33620;52.340;5.984;2022-11-20T15:48:24;2.39;92.59
47861;HTU21D;33620;52.340;5.984;2022-11-20T15:53:18;2.41;92.90
47861;HTU21D;33620;52.340;5.984;2022-11-20T15:55:43;2.42;92.99
47861;HTU21D;33620;52.340;5.984;2022-11-20T15:58:09;2.41;93.09
47861;HTU21D;33620;52.340;5.984;2022-11-20T16:00:34;2.41;93.21
47861;HTU21D;33620;52.340;5.984;2022-11-20T16:02:59;2.42;93.28
47861;HTU21D;33620;52.340;5.984;2022-11-20T16:05:28;2.44;93.39
47861;HTU21D;33620;52.340;5.984;2022-11-20T16:07:53;2.44;93.45
47861;HTU21D;33620;52.340;5.984;2022-11-20T16:10:19;2.46;93.50
47861;HTU21D;33620;52.340;5.984;2022-11-20T16:12:44;2.47;93.61
47861;HTU21D;33620;52.340;5.984;2022-11-20T16:15:28;2.49;93.71
47861;HTU21D;33620;52.340;5.984;2022-11-20T16:18:16;2.50;93.75
47861;HTU21D;33620;52.340;5.984;2022-11-20T16:20:42;2.51;93.85
47861;HTU21D;33620;52.340;5.984;2022-11-20T16:23:07;2.51;93.91
47861;HTU21D;33620;52.340;5.984;2022-11-20T16:25:32;2.53;94.00
47861;HTU21D;33620;52.340;5.984;2022-11-20T16:27:58;2.53;94.02
47861;HTU21D;33620;52.340;5.984;2022-11-20T16:30:24;2.54;94.14
47861;HTU21D;33620;52.340;5.984;2022-11-20T16:32:50;2.56;94.21
47861;HTU21D;33620;52.340;5.984;2022-11-20T16:35:15;2.57;94.25
47861;HTU21D;33620;52.340;5.984;2022-11-20T16:37:41;2.57;94.34
47861;HTU21D;33620;52.340;5.984;2022-11-20T16:40:07;2.57;94.46
47861;HTU21D;33620;52.340;5.984;2022-11-20T16:42:33;2.59;94.46
47861;HTU21D;33620;52.340;5.984;2022-11-20T16:44:59;2.59;94.48
47861;HTU21D;33620;52.340;5.984;2022-11-20T16:47:24;2.59;94.49
47861;HTU21D;33620;52.340;5.984;2022-11-20T16:49:49;2.60;94.61
47861;HTU21D;33620;52.340;5.984;2022-11-20T16:52:15;2.61;94.61
47861;HTU21D;33620;52.340;5.984;2022-11-20T16:54:40;2.62;94.66
47861;HTU21D;33620;52.340;5.984;2022-11-20T16:57:05;2.65;94.67
47861;HTU21D;33620;52.340;5.984;2022-11-20T16:59:31;2.66;94.70
47861;HTU21D;33620;52.340;5.984;2022-11-20T17:01:56;2.67;94.75
47861;HTU21D;33620;52.340;5.984;2022-11-20T17:04:21;2.68;94.85
47861;HTU21D;33620;52.340;5.984;2022-11-20T17:06:47;2.69;94.94
47861;HTU21D;33620;52.340;5.984;2022-11-20T17:09:12;2.70;95.00
47861;HTU21D;33620;52.340;5.984;2022-11-20T17:11:38;2.72;94.95
47861;HTU21D;33620;52.340;5.984;2022-11-20T17:14:04;2.71;94.94